createdAt,value
2023-01-01T00:01:42.312Z,29.77
2023-01-01T00:04:13.651Z,33.67
2023-01-01T00:06:41.822Z,38.25
2023-01-01T00:09:23.727Z,40.60
2023-01-01T00:11:51.669Z,46.80
2023-01-01T00:14:21.224Z,34.63
2023-01-01T00:16:49.038Z,19.95
2023-01-01T00:19:16.854Z,25.10
2023-01-01T00:21:46.872Z,11.30
2023-01-01T00:24:14.697Z,17.30
2023-01-01T00:26:42.772Z,10.63
2023-01-01T00:29:10.627Z,11.50
2023-01-01T00:31:39.853Z,12.88
2023-01-01T00:34:07.807Z,11.35
2023-01-01T00:36:35.623Z,8.88
2023-01-01T00:39:06.010Z,10.75
2023-01-01T00:41:33.841Z,7.60
2023-01-01T00:44:01.794Z,10.55
2023-01-01T00:46:29.659Z,7.25
2023-01-01T00:48:58.952Z,14.73
2023-01-01T00:51:29.385Z,8.38
2023-01-01T00:54:00.968Z,10.10
2023-01-01T00:56:28.849Z,9.25
2023-01-01T00:59:00.505Z,8.25
2023-01-01T01:01:29.809Z,7.75
2023-01-01T01:03:59.080Z,8.02
2023-01-01T01:06:26.935Z,8.98
2023-01-01T01:08:54.755Z,9.45
2023-01-01T01:11:23.860Z,7.60
2023-01-01T01:13:53.793Z,10.05
2023-01-01T01:16:24.217Z,10.05
2023-01-01T01:18:53.037Z,8.55
2023-01-01T01:21:24.410Z,7.32
2023-01-01T01:23:52.586Z,8.60
2023-01-01T01:26:22.203Z,6.60
2023-01-01T01:28:50.841Z,6.95
2023-01-01T01:31:20.277Z,8.85
2023-01-01T01:33:49.375Z,6.65
2023-01-01T01:36:18.495Z,11.02
2023-01-01T01:38:48.595Z,12.00
2023-01-01T01:41:27.252Z,10.00
2023-01-01T01:43:59.749Z,9.77
2023-01-01T01:46:31.613Z,5.93
2023-01-01T01:49:03.848Z,6.18
2023-01-01T01:51:35.807Z,6.75
2023-01-01T01:54:08.049Z,7.95
2023-01-01T01:56:46.442Z,10.98
2023-01-01T01:59:16.007Z,9.00
2023-01-01T02:01:43.932Z,6.75
2023-01-01T02:04:12.757Z,8.43
2023-01-01T02:06:41.220Z,5.13
2023-01-01T02:09:11.227Z,6.90
2023-01-01T02:11:39.126Z,8.57
2023-01-01T02:14:07.305Z,9.82
2023-01-01T02:16:40.967Z,8.55
2023-01-01T02:19:18.257Z,8.32
2023-01-01T02:22:00.773Z,6.68
2023-01-01T02:24:50.370Z,10.52
2023-01-01T02:27:27.336Z,10.75
2023-01-01T02:30:01.681Z,7.88
2023-01-01T02:32:35.359Z,7.28
2023-01-01T02:35:22.104Z,5.32
2023-01-01T02:37:52.390Z,7.70
2023-01-01T02:40:23.443Z,7.45
2023-01-01T02:42:53.491Z,8.82
2023-01-01T02:45:23.298Z,8.23
2023-01-01T02:47:51.171Z,6.22
2023-01-01T02:50:24.233Z,9.05
2023-01-01T02:53:08.979Z,8.05
2023-01-01T02:55:48.057Z,7.45
2023-01-01T02:58:42.665Z,7.63
2023-01-01T03:01:20.694Z,6.45
2023-01-01T03:03:58.069Z,5.50
2023-01-01T03:06:33.505Z,6.78
2023-01-01T03:09:12.221Z,6.45
2023-01-01T03:11:48.163Z,4.93
2023-01-01T03:14:21.530Z,8.02
2023-01-01T03:16:54.720Z,5.68
2023-01-01T03:19:25.872Z,6.25
2023-01-01T03:22:00.176Z,5.20
2023-01-01T03:24:33.889Z,7.32
2023-01-01T03:27:07.588Z,13.27
2023-01-01T03:29:40.311Z,5.78
2023-01-01T03:32:14.788Z,11.45
2023-01-01T03:34:46.761Z,8.48
2023-01-01T03:37:20.902Z,7.82
2023-01-01T03:39:52.150Z,6.07
2023-01-01T03:42:28.325Z,7.05
2023-01-01T03:45:01.889Z,6.47
2023-01-01T03:47:32.137Z,8.13
2023-01-01T03:50:01.495Z,8.55
2023-01-01T03:52:43.264Z,6.22
2023-01-01T03:55:18.596Z,8.63
2023-01-01T03:57:56.524Z,5.60
2023-01-01T04:00:28.102Z,7.07
2023-01-01T04:03:01.647Z,7.15
2023-01-01T04:05:32.825Z,5.60
2023-01-01T04:08:02.971Z,6.90
2023-01-01T04:10:32.562Z,5.57
2023-01-01T04:13:03.612Z,11.80
2023-01-01T04:15:32.103Z,5.53
2023-01-01T04:18:01.219Z,7.93
2023-01-01T04:20:29.460Z,7.82
2023-01-01T04:22:57.883Z,6.38
2023-01-01T04:25:26.417Z,5.68
2023-01-01T04:27:54.177Z,6.18
2023-01-01T04:30:22.363Z,9.10
2023-01-01T04:32:50.149Z,6.90
2023-01-01T04:35:19.960Z,7.22
2023-01-01T04:37:47.807Z,15.05
2023-01-01T04:40:16.044Z,6.82
2023-01-01T04:42:44.431Z,7.63
2023-01-01T04:45:15.406Z,5.03
2023-01-01T04:47:43.712Z,5.50
2023-01-01T04:50:11.661Z,5.47
2023-01-01T04:52:40.865Z,5.10
2023-01-01T04:55:09.355Z,4.95
2023-01-01T04:57:37.181Z,6.10
2023-01-01T05:00:06.295Z,4.55
2023-01-01T05:02:34.274Z,8.57
2023-01-01T05:05:02.166Z,4.97
2023-01-01T05:07:29.995Z,6.70
2023-01-01T05:09:59.204Z,5.82
2023-01-01T05:12:26.977Z,5.80
2023-01-01T05:14:54.757Z,4.63
2023-01-01T05:17:22.526Z,5.63
2023-01-01T05:19:50.282Z,6.43
2023-01-01T05:22:18.122Z,7.82
2023-01-01T05:24:46.031Z,3.70
2023-01-01T05:27:15.180Z,10.95
2023-01-01T05:29:43.071Z,8.75
2023-01-01T05:37:04.275Z,5.13
2023-01-01T05:39:32.036Z,6.53
2023-01-01T05:41:59.947Z,5.68
2023-01-01T05:44:29.214Z,6.88
2023-01-01T05:46:57.059Z,4.03
2023-01-01T05:49:24.909Z,3.70
2023-01-01T05:51:52.842Z,3.58
2023-01-01T05:54:20.709Z,5.78
2023-01-01T05:56:48.516Z,2.85
2023-01-01T05:59:16.305Z,3.35
2023-01-01T06:01:46.245Z,5.10
2023-01-01T06:04:14.678Z,5.25
2023-01-01T06:06:42.954Z,3.78
2023-01-01T06:09:11.847Z,3.72
2023-01-01T06:11:39.705Z,5.18
2023-01-01T06:14:07.512Z,5.32
2023-01-01T06:16:36.022Z,2.65
2023-01-01T06:19:05.395Z,5.45
2023-01-01T06:21:33.163Z,2.92
2023-01-01T06:24:01.711Z,3.55
2023-01-01T06:26:32.050Z,3.35
2023-01-01T06:29:00.841Z,4.28
2023-01-01T06:31:31.941Z,4.60
2023-01-01T06:34:02.147Z,3.30
2023-01-01T06:36:31.433Z,3.17
2023-01-01T06:39:00.352Z,5.32
2023-01-01T06:41:30.704Z,4.97
2023-01-01T06:44:01.992Z,5.10
2023-01-01T06:46:31.666Z,4.78
2023-01-01T06:49:00.991Z,5.03
2023-01-01T06:51:32.232Z,5.68
2023-01-01T06:54:00.934Z,6.23
2023-01-01T06:56:29.317Z,4.43
2023-01-01T06:58:57.650Z,3.55
2023-01-01T07:01:27.189Z,5.07
2023-01-01T07:03:56.688Z,5.13
2023-01-01T07:06:25.275Z,6.53
2023-01-01T07:08:54.760Z,3.78
2023-01-01T07:11:23.168Z,8.35
2023-01-01T07:13:51.004Z,7.05
2023-01-01T07:16:19.139Z,6.90
2023-01-01T07:18:49.108Z,7.53
2023-01-01T07:21:29.962Z,4.10
2023-01-01T07:24:00.183Z,5.57
2023-01-01T07:26:30.140Z,4.53
2023-01-01T07:29:04.654Z,5.47
2023-01-01T07:31:35.516Z,3.15
2023-01-01T07:34:03.355Z,6.78
2023-01-01T07:36:31.103Z,5.38
2023-01-01T07:39:00.209Z,2.67
2023-01-01T07:41:28.417Z,5.55
2023-01-01T07:43:56.372Z,4.40
2023-01-01T07:46:24.365Z,3.10
2023-01-01T07:48:52.274Z,4.90
2023-01-01T07:51:20.028Z,5.20
2023-01-01T07:53:47.794Z,4.50
2023-01-01T07:56:17.004Z,3.38
2023-01-01T07:58:44.815Z,5.63
2023-01-01T08:01:13.601Z,5.28
2023-01-01T08:03:41.556Z,4.65
2023-01-01T08:06:10.421Z,6.53
2023-01-01T08:08:38.872Z,8.25
2023-01-01T08:11:06.743Z,5.10
2023-01-01T08:13:35.970Z,4.88
2023-01-01T08:16:04.224Z,4.25
2023-01-01T08:18:32.070Z,5.88
2023-01-01T08:20:59.868Z,5.80
2023-01-01T08:23:27.580Z,4.53
2023-01-01T08:25:55.539Z,5.35
2023-01-01T08:28:23.256Z,5.07
2023-01-01T08:30:52.412Z,4.47
2023-01-01T08:33:20.300Z,3.47
2023-01-01T08:35:53.875Z,8.10
2023-01-01T08:38:22.504Z,5.68
2023-01-01T08:40:50.323Z,6.40
2023-01-01T08:43:18.200Z,3.17
2023-01-01T08:45:47.012Z,6.43
2023-01-01T08:48:16.179Z,5.70
2023-01-01T08:50:44.032Z,2.97
2023-01-01T08:53:11.898Z,2.97
2023-01-01T08:55:39.628Z,4.05
2023-01-01T08:58:08.517Z,4.93
2023-01-01T09:00:36.354Z,5.32
2023-01-01T09:03:04.509Z,3.88
2023-01-01T09:05:33.781Z,4.15
2023-01-01T09:08:01.567Z,5.38
2023-01-01T09:10:29.553Z,5.50
2023-01-01T09:12:57.314Z,12.98
2023-01-01T09:15:25.260Z,8.43
2023-01-01T09:17:53.109Z,6.03
2023-01-01T09:20:21.065Z,6.53
2023-01-01T09:22:50.292Z,4.53
2023-01-01T09:25:18.305Z,6.03
2023-01-01T09:27:46.131Z,6.85
2023-01-01T09:30:14.849Z,8.20
2023-01-01T09:32:42.661Z,6.00
2023-01-01T09:35:11.034Z,4.50
2023-01-01T09:37:38.905Z,6.85
2023-01-01T09:40:09.945Z,4.25
2023-01-01T09:42:44.779Z,5.03
2023-01-01T09:45:23.010Z,2.97
2023-01-01T09:47:54.286Z,6.40
2023-01-01T09:50:24.958Z,5.93
2023-01-01T09:52:57.436Z,7.68
2023-01-01T09:55:30.250Z,3.92
2023-01-01T09:57:58.607Z,3.95
2023-01-01T10:00:26.635Z,4.90
2023-01-01T10:03:30.176Z,7.70
2023-01-01T10:06:05.248Z,7.38
2023-01-01T10:08:44.657Z,3.47
2023-01-01T10:11:21.796Z,6.32
2023-01-01T10:13:51.863Z,8.48
2023-01-01T10:16:31.913Z,5.60
2023-01-01T10:19:03.995Z,7.82
2023-01-01T10:24:05.696Z,4.68
2023-01-01T10:26:38.505Z,4.68
2023-01-01T10:29:14.665Z,6.15
2023-01-01T10:31:46.519Z,6.78
2023-01-01T10:34:18.644Z,5.28
2023-01-01T10:39:16.940Z,8.65
2023-01-01T10:41:46.663Z,5.82
2023-01-01T10:44:17.320Z,5.63
2023-01-01T10:46:48.928Z,4.50
2023-01-01T10:49:16.992Z,9.18
2023-01-01T10:51:47.045Z,4.05
2023-01-01T10:54:34.008Z,6.70
2023-01-01T10:57:15.507Z,5.05
2023-01-01T10:59:49.805Z,3.22
2023-01-01T11:02:24.423Z,4.68
2023-01-01T11:04:54.390Z,7.63
2023-01-01T11:07:29.907Z,4.63
2023-01-01T11:10:04.161Z,6.00
2023-01-01T11:15:38.515Z,10.77
2023-01-01T11:18:07.928Z,4.77
2023-01-01T11:20:35.819Z,6.20
2023-01-01T11:23:20.952Z,7.10
2023-01-01T11:25:59.948Z,5.18
2023-01-01T11:28:31.785Z,11.60
2023-01-01T11:31:03.514Z,6.00
2023-01-01T11:33:33.757Z,6.85
2023-01-01T11:36:02.097Z,5.03
2023-01-01T11:38:30.681Z,4.28
2023-01-01T11:41:05.356Z,3.17
2023-01-01T11:43:41.352Z,6.97
2023-01-01T11:46:12.086Z,4.68
2023-01-01T11:48:44.235Z,4.97
2023-01-01T11:51:30.648Z,6.43
2023-01-01T11:54:24.173Z,6.00
2023-01-01T11:56:56.656Z,4.13
2023-01-01T11:59:30.284Z,3.85
2023-01-01T12:02:03.271Z,7.30
2023-01-01T12:04:38.897Z,6.53
2023-01-01T12:07:09.498Z,4.88
2023-01-01T12:09:43.521Z,4.05
2023-01-01T12:12:17.052Z,3.30
2023-01-01T12:14:54.927Z,3.05
2023-01-01T12:17:27.425Z,5.32
2023-01-01T12:20:01.696Z,3.95
2023-01-01T12:22:29.929Z,3.85
2023-01-01T12:24:58.202Z,3.95
2023-01-01T12:27:44.943Z,4.65
2023-01-01T12:30:22.775Z,4.78
2023-01-01T12:33:15.389Z,3.97
2023-01-01T12:35:57.943Z,7.75
2023-01-01T12:38:57.832Z,5.50
2023-01-01T12:41:34.515Z,4.75
2023-01-01T12:44:13.703Z,6.05
2023-01-01T12:46:51.936Z,7.53
2023-01-01T12:49:36.137Z,6.85
2023-01-01T12:52:19.857Z,16.95
2023-01-01T12:55:18.457Z,11.40
2023-01-01T12:57:52.796Z,4.88
2023-01-01T13:00:21.834Z,8.32
2023-01-01T13:02:53.695Z,5.05
2023-01-01T13:05:27.072Z,12.10
2023-01-01T13:07:59.822Z,5.40
2023-01-01T13:10:31.171Z,5.28
2023-01-01T13:12:58.943Z,5.57
2023-01-01T13:15:45.163Z,5.47
2023-01-01T13:18:24.654Z,6.00
2023-01-01T13:20:58.229Z,4.47
2023-01-01T13:23:51.924Z,4.53
2023-01-01T13:26:39.155Z,5.05
2023-01-01T13:29:45.045Z,5.22
2023-01-01T13:32:15.042Z,3.55
2023-01-01T13:35:20.107Z,8.65
2023-01-01T13:37:49.200Z,5.18
2023-01-01T13:40:34.173Z,2.83
2023-01-01T13:43:21.692Z,5.50
2023-01-01T13:49:25.764Z,3.50
2023-01-01T13:52:14.327Z,3.78
2023-01-01T13:55:16.293Z,4.63
2023-01-01T13:58:16.017Z,5.32
2023-01-01T14:01:12.470Z,3.88
2023-01-01T14:03:45.080Z,4.20
2023-01-01T14:06:16.555Z,8.13
2023-01-01T14:08:45.741Z,8.52
2023-01-01T14:11:22.093Z,4.10
2023-01-01T14:13:50.141Z,4.20
2023-01-01T14:16:18.475Z,6.28
2023-01-01T14:18:49.139Z,6.82
2023-01-01T14:21:20.114Z,7.00
2023-01-01T14:23:52.690Z,7.47
2023-01-01T14:26:23.065Z,4.45
2023-01-01T14:28:55.196Z,8.90
2023-01-01T14:33:53.117Z,4.13
2023-01-01T14:36:23.323Z,10.45
2023-01-01T14:38:54.157Z,6.28
2023-01-01T14:41:28.767Z,3.53
2023-01-01T14:43:58.612Z,6.03
2023-01-01T14:46:27.783Z,4.32
2023-01-01T14:48:58.599Z,3.78
2023-01-01T14:51:28.151Z,6.80
2023-01-01T14:54:00.557Z,6.55
2023-01-01T14:56:30.181Z,6.72
2023-01-01T14:59:07.505Z,3.15
2023-01-01T15:01:35.359Z,4.68
2023-01-01T15:04:05.228Z,5.65
2023-01-01T15:06:33.874Z,8.00
2023-01-01T15:09:03.049Z,5.68
2023-01-01T15:11:30.797Z,5.05
2023-01-01T15:14:01.207Z,6.22
2023-01-01T15:16:36.127Z,10.25
2023-01-01T15:19:19.226Z,3.88
2023-01-01T15:21:47.236Z,3.75
2023-01-01T15:24:20.431Z,5.57
2023-01-01T15:26:51.916Z,4.75
2023-01-01T15:29:29.167Z,7.97
2023-01-01T15:32:00.056Z,6.03
2023-01-01T15:34:31.693Z,5.30
2023-01-01T15:37:11.308Z,4.55
2023-01-01T15:39:52.094Z,7.68
2023-01-01T15:42:32.936Z,8.98
2023-01-01T15:45:16.910Z,9.10
2023-01-01T15:47:45.245Z,6.18
2023-01-01T15:50:22.255Z,5.10
2023-01-01T15:52:55.747Z,3.30
2023-01-01T15:55:27.877Z,6.28
2023-01-01T15:57:56.952Z,4.18
2023-01-01T16:00:27.095Z,4.38
2023-01-01T16:03:00.618Z,9.77
2023-01-01T16:05:29.013Z,6.65
2023-01-01T16:08:01.846Z,7.18
2023-01-01T16:10:32.836Z,7.13
2023-01-01T16:13:00.761Z,9.05
2023-01-01T16:15:28.586Z,5.75
2023-01-01T16:17:56.661Z,5.18
2023-01-01T16:20:28.127Z,5.95
2023-01-01T16:22:56.065Z,7.57
2023-01-01T16:25:24.400Z,6.13
2023-01-01T16:27:53.570Z,4.13
2023-01-01T16:30:26.980Z,8.07
2023-01-01T16:32:55.008Z,8.43
2023-01-01T16:35:22.815Z,4.32
2023-01-01T16:37:50.686Z,4.88
2023-01-01T16:40:18.695Z,5.40
2023-01-01T16:42:46.563Z,4.32
2023-01-01T16:45:19.122Z,7.38
2023-01-01T16:47:47.643Z,5.60
2023-01-01T16:50:15.760Z,4.15
2023-01-01T16:52:45.141Z,6.28
2023-01-01T16:55:13.666Z,5.82
2023-01-01T16:57:41.559Z,4.93
2023-01-01T17:00:10.823Z,5.07
2023-01-01T17:02:40.085Z,3.90
2023-01-01T17:05:08.852Z,3.22
2023-01-01T17:07:36.640Z,6.70
2023-01-01T17:10:07.512Z,8.52
2023-01-01T17:12:35.342Z,4.53
2023-01-01T17:15:03.197Z,5.93
2023-01-01T17:17:30.974Z,4.20
2023-01-01T17:20:00.233Z,4.78
2023-01-01T17:22:33.909Z,6.38
2023-01-01T17:25:02.181Z,4.53
2023-01-01T17:27:30.003Z,5.78
2023-01-01T17:29:57.729Z,5.55
2023-01-01T17:32:25.523Z,7.88
2023-01-01T17:34:53.310Z,14.05
2023-01-01T17:37:22.472Z,14.25
2023-01-01T17:39:50.280Z,14.07
2023-01-01T17:42:18.074Z,5.03
2023-01-01T17:44:45.875Z,7.40
2023-01-01T17:47:14.209Z,4.30
2023-01-01T17:49:43.214Z,5.60
2023-01-01T17:52:11.241Z,11.88
2023-01-01T17:54:40.400Z,3.83
2023-01-01T17:57:08.194Z,7.35
2023-01-01T17:59:36.012Z,7.18
2023-01-01T18:02:03.929Z,6.63
2023-01-01T18:04:31.834Z,10.52
2023-01-01T18:07:05.905Z,6.07
2023-01-01T18:09:34.352Z,9.00
2023-01-01T18:12:03.507Z,14.25
2023-01-01T18:14:31.275Z,7.10
2023-01-01T18:16:59.222Z,13.65
2023-01-01T18:19:27.714Z,10.45
2023-01-01T18:21:55.606Z,11.18
2023-01-01T18:24:23.369Z,15.02
2023-01-01T18:26:51.111Z,7.60
2023-01-01T18:29:20.499Z,16.27
2023-01-01T18:31:48.565Z,19.42
2023-01-01T18:34:16.411Z,12.95
2023-01-01T18:36:46.917Z,9.25
2023-01-01T18:39:17.766Z,13.30
2023-01-01T18:42:34.633Z,9.13
2023-01-01T18:45:14.488Z,14.65
2023-01-01T18:47:42.658Z,8.02
2023-01-01T18:50:19.456Z,4.72
2023-01-01T18:52:47.843Z,10.10
2023-01-01T18:55:18.990Z,25.63
2023-01-01T18:57:50.743Z,10.17
2023-01-01T19:00:24.260Z,7.55
2023-01-01T19:02:56.663Z,6.72
2023-01-01T19:05:27.292Z,7.28
2023-01-01T19:08:02.745Z,7.35
2023-01-01T19:10:36.738Z,8.60
2023-01-01T19:13:16.626Z,8.52
2023-01-01T19:15:51.139Z,8.25
2023-01-01T19:18:21.541Z,10.43
2023-01-01T19:20:51.793Z,9.32
2023-01-01T19:23:23.520Z,13.77
2023-01-01T19:25:52.707Z,9.57
2023-01-01T19:28:32.339Z,5.63
2023-01-01T19:31:02.736Z,8.50
2023-01-01T19:33:31.186Z,9.93
2023-01-01T19:35:59.573Z,11.82
2023-01-01T19:38:27.419Z,6.40
2023-01-01T19:40:55.226Z,6.93
2023-01-01T19:43:23.016Z,10.38
2023-01-01T19:45:50.796Z,9.52
2023-01-01T19:48:19.970Z,6.43
2023-01-01T19:50:48.271Z,7.03
2023-01-01T19:53:16.519Z,10.15
2023-01-01T19:55:44.651Z,6.60
2023-01-01T19:58:12.433Z,13.25
2023-01-01T20:00:40.387Z,5.13
2023-01-01T20:03:51.377Z,11.27
2023-01-01T20:05:57.452Z,3.80
2023-01-01T20:08:26.905Z,5.72
2023-01-01T20:10:54.771Z,7.80
2023-01-01T20:13:22.593Z,7.25
2023-01-01T20:15:50.483Z,7.18
2023-01-01T20:18:18.252Z,5.00
2023-01-01T20:20:59.931Z,8.43
2023-01-01T20:23:29.436Z,7.82
2023-01-01T20:25:57.186Z,7.43
2023-01-01T20:28:42.397Z,6.85
2023-01-01T20:31:12.698Z,4.97
2023-01-01T20:33:40.490Z,8.50
2023-01-01T20:36:26.086Z,8.70
2023-01-01T20:38:55.288Z,11.50
2023-01-01T20:41:25.700Z,6.95
2023-01-01T20:43:54.895Z,13.25
2023-01-01T20:46:25.101Z,8.73
2023-01-01T20:48:53.863Z,9.45
2023-01-01T20:51:21.768Z,12.52
2023-01-01T20:53:50.034Z,14.77
2023-01-01T20:56:19.247Z,14.45
2023-01-01T20:58:50.308Z,16.23
2023-01-01T21:01:21.181Z,23.70
2023-01-01T21:03:49.222Z,16.05
2023-01-01T21:06:23.528Z,17.25
2023-01-01T21:08:51.983Z,15.13
2023-01-01T21:11:21.361Z,15.95
2023-01-01T21:13:49.666Z,15.55
2023-01-01T21:16:19.618Z,13.88
2023-01-01T21:18:49.058Z,10.70
2023-01-01T21:21:21.325Z,16.60
2023-01-01T21:23:49.490Z,11.70
2023-01-01T21:26:19.173Z,12.65
2023-01-01T21:28:48.470Z,16.55
2023-01-01T21:31:16.535Z,16.35
2023-01-01T21:33:46.070Z,15.27
2023-01-01T21:36:18.563Z,10.52
2023-01-01T21:38:47.186Z,11.25
2023-01-01T21:41:20.040Z,6.35
2023-01-01T21:43:51.968Z,13.82
2023-01-01T21:46:29.339Z,10.00
2023-01-01T21:49:00.233Z,11.52
2023-01-01T21:51:31.656Z,9.20
2023-01-01T21:54:19.948Z,10.85
2023-01-01T21:56:56.271Z,9.40
2023-01-01T21:59:36.514Z,13.65
2023-01-01T22:02:41.008Z,14.13
2023-01-01T22:05:30.358Z,12.45
2023-01-01T22:07:59.303Z,14.88
2023-01-01T22:10:30.186Z,12.93
2023-01-01T22:13:01.485Z,14.95
2023-01-01T22:15:38.801Z,14.98
2023-01-01T22:18:25.769Z,15.57
2023-01-01T22:20:53.973Z,11.70
2023-01-01T22:23:29.250Z,15.90
2023-01-01T22:25:57.056Z,14.23
2023-01-01T22:28:26.776Z,9.95
2023-01-01T22:30:59.826Z,15.23
2023-01-01T22:33:34.111Z,12.15
2023-01-01T22:36:01.894Z,11.15
2023-01-01T22:38:34.115Z,11.68
2023-01-01T22:41:02.362Z,9.70
2023-01-01T22:43:35.269Z,12.38
2023-01-01T22:46:12.156Z,7.57
2023-01-01T22:48:40.232Z,16.45
2023-01-01T22:51:12.992Z,12.48
2023-01-01T22:53:40.773Z,11.82
2023-01-01T22:56:08.988Z,13.00
2023-01-01T22:58:36.815Z,18.52
2023-01-01T23:01:06.291Z,16.85
2023-01-01T23:03:34.253Z,16.05
2023-01-01T23:06:02.574Z,25.23
2023-01-01T23:08:31.351Z,14.93
2023-01-01T23:11:00.674Z,18.02
2023-01-01T23:13:45.689Z,22.25
2023-01-01T23:16:14.926Z,18.17
2023-01-01T23:18:42.761Z,16.80
2023-01-01T23:21:13.224Z,16.88
2023-01-01T23:23:42.355Z,17.40
2023-01-01T23:26:10.809Z,21.67
2023-01-01T23:28:39.995Z,26.92
2023-01-01T23:31:10.214Z,26.02
2023-01-01T23:33:40.346Z,20.17
2023-01-01T23:36:09.910Z,18.42
2023-01-01T23:38:38.808Z,22.00
2023-01-01T23:41:06.763Z,18.38
2023-01-01T23:43:39.393Z,13.15
2023-01-01T23:46:11.112Z,16.10
2023-01-01T23:48:41.091Z,19.92
2023-01-01T23:51:09.154Z,11.68
2023-01-01T23:53:36.960Z,14.25
2023-01-01T23:56:05.002Z,13.40
2023-01-01T23:58:32.733Z,12.90
